sensor_id;sensor_type;location;lat;lon;timestamp;temperature;humidity
31003;DHT22;23051;-6.372;106.786;2024-02-26T00:00:44;26.80;89.70
31003;DHT22;23051;-6.372;106.786;2024-02-26T00:02:47;26.80;89.70
31003;DHT22;23051;-6.372;106.786;2024-02-26T00:04:48;26.80;89.70
31003;DHT22;23051;-6.372;106.786;2024-02-26T00:06:49;26.80;89.70
31003;DHT22;23051;-6.372;106.786;2024-02-26T00:08:51;26.80;89.60
31003;DHT22;23051;-6.372;106.786;2024-02-26T00:10:53;26.90;89.60
31003;DHT22;23051;-6.372;106.786;2024-02-26T00:12:54;26.90;89.60
31003;DHT22;23051;-6.372;106.786;2024-02-26T00:14:55;26.90;89.50
31003;DHT22;23051;-6.372;106.786;2024-02-26T00:16:59;26.90;89.50
31003;DHT22;23051;-6.372;106.786;2024-02-26T00:19:00;26.90;89.50
31003;DHT22;23051;-6.372;106.786;2024-02-26T00:21:01;26.90;89.50
31003;DHT22;23051;-6.372;106.786;2024-02-26T00:23:03;27.00;89.50
31003;DHT22;23051;-6.372;106.786;2024-02-26T00:25:04;26.90;89.40
31003;DHT22;23051;-6.372;106.786;2024-02-26T00:27:08;27.00;89.40
31003;DHT22;23051;-6.372;106.786;2024-02-26T00:29:10;27.00;89.30
31003;DHT22;23051;-6.372;106.786;2024-02-26T00:31:11;27.10;89.30
31003;DHT22;23051;-6.372;106.786;2024-02-26T00:33:12;27.10;89.20
31003;DHT22;23051;-6.372;106.786;2024-02-26T00:35:14;27.10;89.10
31003;DHT22;23051;-6.372;106.786;2024-02-26T00:37:16;27.10;89.10
31003;DHT22;23051;-6.372;106.786;2024-02-26T00:39:17;27.20;89.10
31003;DHT22;23051;-6.372;106.786;2024-02-26T00:41:18;27.20;89.00
31003;DHT22;23051;-6.372;106.786;2024-02-26T00:43:20;27.20;89.00
31003;DHT22;23051;-6.372;106.786;2024-02-26T00:45:21;27.20;88.90
31003;DHT22;23051;-6.372;106.786;2024-02-26T00:47:22;27.30;88.90
31003;DHT22;23051;-6.372;106.786;2024-02-26T00:49:23;27.30;88.80
31003;DHT22;23051;-6.372;106.786;2024-02-26T00:51:25;27.40;88.80
31003;DHT22;23051;-6.372;106.786;2024-02-26T00:53:26;27.40;88.70
31003;DHT22;23051;-6.372;106.786;2024-02-26T00:55:27;27.40;88.60
31003;DHT22;23051;-6.372;106.786;2024-02-26T00:57:28;27.50;88.60
31003;DHT22;23051;-6.372;106.786;2024-02-26T00:59:32;27.50;88.60
31003;DHT22;23051;-6.372;106.786;2024-02-26T01:01:33;27.50;88.40
31003;DHT22;23051;-6.372;106.786;2024-02-26T01:03:34;27.60;88.50
31003;DHT22;23051;-6.372;106.786;2024-02-26T01:05:35;27.50;88.40
31003;DHT22;23051;-6.372;106.786;2024-02-26T01:07:38;27.60;88.40
31003;DHT22;23051;-6.372;106.786;2024-02-26T01:09:40;27.60;88.40
31003;DHT22;23051;-6.372;106.786;2024-02-26T01:11:41;27.60;88.40
31003;DHT22;23051;-6.372;106.786;2024-02-26T01:13:42;27.70;88.30
31003;DHT22;23051;-6.372;106.786;2024-02-26T01:15:44;27.70;88.20
31003;DHT22;23051;-6.372;106.786;2024-02-26T01:17:45;27.80;88.20
31003;DHT22;23051;-6.372;106.786;2024-02-26T01:19:48;27.90;88.00
31003;DHT22;23051;-6.372;106.786;2024-02-26T01:21:49;27.90;87.80
31003;DHT22;23051;-6.372;106.786;2024-02-26T01:23:50;27.90;87.70
31003;DHT22;23051;-6.372;106.786;2024-02-26T01:25:51;28.00;87.80
31003;DHT22;23051;-6.372;106.786;2024-02-26T01:27:53;28.00;87.70
31003;DHT22;23051;-6.372;106.786;2024-02-26T01:29:54;28.00;87.70
31003;DHT22;23051;-6.372;106.786;2024-02-26T01:31:55;28.00;87.70
31003;DHT22;23051;-6.372;106.786;2024-02-26T01:33:57;28.10;87.70
31003;DHT22;23051;-6.372;106.786;2024-02-26T01:35:58;28.10;87.60
31003;DHT22;23051;-6.372;106.786;2024-02-26T01:37:59;28.10;87.50
31003;DHT22;23051;-6.372;106.786;2024-02-26T01:40:00;28.20;87.50
31003;DHT22;23051;-6.372;106.786;2024-02-26T01:42:04;28.20;87.40
31003;DHT22;23051;-6.372;106.786;2024-02-26T01:44:06;28.30;87.30
31003;DHT22;23051;-6.372;106.786;2024-02-26T01:46:08;28.40;87.10
31003;DHT22;23051;-6.372;106.786;2024-02-26T01:48:11;28.40;86.90
31003;DHT22;23051;-6.372;106.786;2024-02-26T01:50:16;28.50;86.70
31003;DHT22;23051;-6.372;106.786;2024-02-26T01:52:18;28.60;86.70
31003;DHT22;23051;-6.372;106.786;2024-02-26T01:54:19;28.70;86.50
31003;DHT22;23051;-6.372;106.786;2024-02-26T01:56:20;28.80;86.30
31003;DHT22;23051;-6.372;106.786;2024-02-26T01:58:22;28.90;86.20
31003;DHT22;23051;-6.372;106.786;2024-02-26T02:00:23;29.00;86.00
31003;DHT22;23051;-6.372;106.786;2024-02-26T02:02:25;29.10;85.90
31003;DHT22;23051;-6.372;106.786;2024-02-26T02:04:26;29.00;85.90
31003;DHT22;23051;-6.372;106.786;2024-02-26T02:06:28;29.10;85.90
31003;DHT22;23051;-6.372;106.786;2024-02-26T02:08:29;29.10;85.90
31003;DHT22;23051;-6.372;106.786;2024-02-26T02:10:30;29.10;85.90
31003;DHT22;23051;-6.372;106.786;2024-02-26T02:12:32;29.10;85.90
31003;DHT22;23051;-6.372;106.786;2024-02-26T02:14:34;29.10;85.90
31003;DHT22;23051;-6.372;106.786;2024-02-26T02:16:36;29.10;85.90
31003;DHT22;23051;-6.372;106.786;2024-02-26T02:18:37;29.10;85.90
31003;DHT22;23051;-6.372;106.786;2024-02-26T02:20:38;29.10;86.00
31003;DHT22;23051;-6.372;106.786;2024-02-26T02:22:39;29.10;86.00
31003;DHT22;23051;-6.372;106.786;2024-02-26T02:24:40;29.10;86.10
31003;DHT22;23051;-6.372;106.786;2024-02-26T02:26:42;29.10;86.10
31003;DHT22;23051;-6.372;106.786;2024-02-26T02:28:43;29.10;86.10
31003;DHT22;23051;-6.372;106.786;2024-02-26T02:30:45;29.10;86.10
31003;DHT22;23051;-6.372;106.786;2024-02-26T02:32:47;29.10;86.10
31003;DHT22;23051;-6.372;106.786;2024-02-26T02:34:48;29.10;86.10
31003;DHT22;23051;-6.372;106.786;2024-02-26T02:36:51;29.10;86.10
31003;DHT22;23051;-6.372;106.786;2024-02-26T02:38:53;29.20;86.10
31003;DHT22;23051;-6.372;106.786;2024-02-26T02:40:58;29.20;86.10
31003;DHT22;23051;-6.372;106.786;2024-02-26T02:42:59;29.20;85.90
31003;DHT22;23051;-6.372;106.786;2024-02-26T02:45:02;29.30;85.90
31003;DHT22;23051;-6.372;106.786;2024-02-26T02:47:04;29.30;85.80
31003;DHT22;23051;-6.372;106.786;2024-02-26T02:49:10;29.30;85.70
31003;DHT22;23051;-6.372;106.786;2024-02-26T02:51:12;29.40;85.80
31003;DHT22;23051;-6.372;106.786;2024-02-26T02:53:13;29.40;85.70
31003;DHT22;23051;-6.372;106.786;2024-02-26T02:55:16;29.40;85.80
31003;DHT22;23051;-6.372;106.786;2024-02-26T02:57:18;29.40;85.80
31003;DHT22;23051;-6.372;106.786;2024-02-26T02:59:19;29.40;85.90
31003;DHT22;23051;-6.372;106.786;2024-02-26T03:01:20;29.30;85.80
31003;DHT22;23051;-6.372;106.786;2024-02-26T03:03:21;29.30;85.90
31003;DHT22;23051;-6.372;106.786;2024-02-26T03:05:25;29.30;86.10
31003;DHT22;23051;-6.372;106.786;2024-02-26T03:07:26;29.20;86.10
31003;DHT22;23051;-6.372;106.786;2024-02-26T03:09:27;29.20;86.30
31003;DHT22;23051;-6.372;106.786;2024-02-26T03:11:28;29.20;86.50
31003;DHT22;23051;-6.372;106.786;2024-02-26T03:13:30;29.10;86.50
31003;DHT22;23051;-6.372;106.786;2024-02-26T03:15:31;29.10;86.60
31003;DHT22;23051;-6.372;106.786;2024-02-26T03:17:33;29.10;86.70
31003;DHT22;23051;-6.372;106.786;2024-02-26T03:19:34;29.00;86.70
31003;DHT22;23051;-6.372;106.786;2024-02-26T03:21:35;29.00;86.80
31003;DHT22;23051;-6.372;106.786;2024-02-26T03:23:36;29.00;86.90
31003;DHT22;23051;-6.372;106.786;2024-02-26T03:25:38;29.00;86.90
31003;DHT22;23051;-6.372;106.786;2024-02-26T03:27:39;29.00;86.90
31003;DHT22;23051;-6.372;106.786;2024-02-26T03:29:40;29.00;86.90
31003;DHT22;23051;-6.372;106.786;2024-02-26T03:31:42;29.00;86.90
31003;DHT22;23051;-6.372;106.786;2024-02-26T03:33:43;29.00;86.90
31003;DHT22;23051;-6.372;106.786;2024-02-26T03:35:44;29.00;87.00
31003;DHT22;23051;-6.372;106.786;2024-02-26T03:37:46;29.00;87.00
31003;DHT22;23051;-6.372;106.786;2024-02-26T03:39:48;29.00;86.90
31003;DHT22;23051;-6.372;106.786;2024-02-26T03:41:49;29.10;87.00
31003;DHT22;23051;-6.372;106.786;2024-02-26T03:43:50;29.10;86.90
31003;DHT22;23051;-6.372;106.786;2024-02-26T03:45:52;29.20;86.80
31003;DHT22;23051;-6.372;106.786;2024-02-26T03:47:53;29.20;86.70
31003;DHT22;23051;-6.372;106.786;2024-02-26T03:49:54;29.20;86.50
31003;DHT22;23051;-6.372;106.786;2024-02-26T03:51:55;29.20;86.40
31003;DHT22;23051;-6.372;106.786;2024-02-26T03:53:57;29.30;86.40
31003;DHT22;23051;-6.372;106.786;2024-02-26T03:56:02;29.30;86.30
31003;DHT22;23051;-6.372;106.786;2024-02-26T03:58:06;29.40;86.20
31003;DHT22;23051;-6.372;106.786;2024-02-26T04:00:07;29.40;86.10
31003;DHT22;23051;-6.372;106.786;2024-02-26T04:02:09;29.50;86.00
31003;DHT22;23051;-6.372;106.786;2024-02-26T04:04:10;29.50;85.80
31003;DHT22;23051;-6.372;106.786;2024-02-26T04:06:11;29.60;85.80
31003;DHT22;23051;-6.372;106.786;2024-02-26T04:08:15;29.70;85.70
31003;DHT22;23051;-6.372;106.786;2024-02-26T04:10:16;29.70;85.60
31003;DHT22;23051;-6.372;106.786;2024-02-26T04:12:18;29.80;85.60
31003;DHT22;23051;-6.372;106.786;2024-02-26T04:14:19;29.80;85.60
31003;DHT22;23051;-6.372;106.786;2024-02-26T04:16:20;29.80;85.40
31003;DHT22;23051;-6.372;106.786;2024-02-26T04:18:21;29.80;85.40
31003;DHT22;23051;-6.372;106.786;2024-02-26T04:20:22;29.90;85.40
31003;DHT22;23051;-6.372;106.786;2024-02-26T04:22:23;30.00;85.30
31003;DHT22;23051;-6.372;106.786;2024-02-26T04:24:24;30.00;85.20
31003;DHT22;23051;-6.372;106.786;2024-02-26T04:26:26;30.00;85.20
31003;DHT22;23051;-6.372;106.786;2024-02-26T04:28:27;30.00;85.10
31003;DHT22;23051;-6.372;106.786;2024-02-26T04:30:31;30.00;85.20
31003;DHT22;23051;-6.372;106.786;2024-02-26T04:32:32;30.00;85.10
31003;DHT22;23051;-6.372;106.786;2024-02-26T04:34:34;30.00;85.10
31003;DHT22;23051;-6.372;106.786;2024-02-26T04:36:36;30.00;85.20
31003;DHT22;23051;-6.372;106.786;2024-02-26T04:38:37;30.00;85.20
31003;DHT22;23051;-6.372;106.786;2024-02-26T04:40:38;30.00;85.40
31003;DHT22;23051;-6.372;106.786;2024-02-26T04:42:39;30.00;85.40
31003;DHT22;23051;-6.372;106.786;2024-02-26T04:44:40;29.90;85.40
31003;DHT22;23051;-6.372;106.786;2024-02-26T04:46:42;30.00;85.50
31003;DHT22;23051;-6.372;106.786;2024-02-26T04:48:43;29.90;85.50
31003;DHT22;23051;-6.372;106.786;2024-02-26T04:50:46;29.90;85.50
31003;DHT22;23051;-6.372;106.786;2024-02-26T04:52:47;29.90;86.40
31003;DHT22;23051;-6.372;106.786;2024-02-26T04:54:49;29.90;85.60
31003;DHT22;23051;-6.372;106.786;2024-02-26T04:56:50;29.90;85.60
31003;DHT22;23051;-6.372;106.786;2024-02-26T04:58:52;30.00;85.60
31003;DHT22;23051;-6.372;106.786;2024-02-26T05:00:56;30.00;85.50
31003;DHT22;23051;-6.372;106.786;2024-02-26T05:02:57;30.00;85.40
31003;DHT22;23051;-6.372;106.786;2024-02-26T05:04:58;30.00;85.40
31003;DHT22;23051;-6.372;106.786;2024-02-26T05:07:00;30.00;85.40
31003;DHT22;23051;-6.372;106.786;2024-02-26T05:09:01;30.10;85.40
31003;DHT22;23051;-6.372;106.786;2024-02-26T05:11:04;30.10;85.40
31003;DHT22;23051;-6.372;106.786;2024-02-26T05:13:06;30.20;85.30
31003;DHT22;23051;-6.372;106.786;2024-02-26T05:15:07;30.20;85.20
31003;DHT22;23051;-6.372;106.786;2024-02-26T05:17:09;30.30;85.00
31003;DHT22;23051;-6.372;106.786;2024-02-26T05:19:10;30.40;84.80
31003;DHT22;23051;-6.372;106.786;2024-02-26T05:21:11;30.50;84.60
31003;DHT22;23051;-6.372;106.786;2024-02-26T05:23:13;30.70;84.50
31003;DHT22;23051;-6.372;106.786;2024-02-26T05:25:17;30.90;84.10
31003;DHT22;23051;-6.372;106.786;2024-02-26T05:27:18;31.00;83.70
31003;DHT22;23051;-6.372;106.786;2024-02-26T05:29:19;31.00;83.50
31003;DHT22;23051;-6.372;106.786;2024-02-26T05:31:20;31.00;83.50
31003;DHT22;23051;-6.372;106.786;2024-02-26T05:33:22;31.00;83.70
31003;DHT22;23051;-6.372;106.786;2024-02-26T05:35:24;31.00;83.70
31003;DHT22;23051;-6.372;106.786;2024-02-26T05:37:26;31.10;83.70
31003;DHT22;23051;-6.372;106.786;2024-02-26T05:41:47;31.10;83.70
31003;DHT22;23051;-6.372;106.786;2024-02-26T05:43:50;31.10;83.70
31003;DHT22;23051;-6.372;106.786;2024-02-26T05:45:51;31.10;83.80
31003;DHT22;23051;-6.372;106.786;2024-02-26T05:47:52;31.00;83.70
31003;DHT22;23051;-6.372;106.786;2024-02-26T05:49:53;31.00;83.70
31003;DHT22;23051;-6.372;106.786;2024-02-26T05:51:55;31.10;83.80
31003;DHT22;23051;-6.372;106.786;2024-02-26T05:53:57;31.20;83.70
31003;DHT22;23051;-6.372;106.786;2024-02-26T05:55:58;31.20;83.50
31003;DHT22;23051;-6.372;106.786;2024-02-26T05:57:59;31.20;83.60
31003;DHT22;23051;-6.372;106.786;2024-02-26T06:00:01;31.20;83.60
31003;DHT22;23051;-6.372;106.786;2024-02-26T06:02:04;31.20;83.70
31003;DHT22;23051;-6.372;106.786;2024-02-26T06:04:06;31.30;83.50
31003;DHT22;23051;-6.372;106.786;2024-02-26T06:06:07;31.30;83.50
31003;DHT22;23051;-6.372;106.786;2024-02-26T06:08:08;31.30;83.60
31003;DHT22;23051;-6.372;106.786;2024-02-26T06:10:09;31.40;83.40
31003;DHT22;23051;-6.372;106.786;2024-02-26T06:12:31;31.40;83.30
31003;DHT22;23051;-6.372;106.786;2024-02-26T06:14:33;31.40;83.30
31003;DHT22;23051;-6.372;106.786;2024-02-26T06:16:34;31.40;83.30
31003;DHT22;23051;-6.372;106.786;2024-02-26T06:18:35;31.50;83.30
31003;DHT22;23051;-6.372;106.786;2024-02-26T06:20:36;31.50;83.30
31003;DHT22;23051;-6.372;106.786;2024-02-26T06:22:39;31.40;83.30
31003;DHT22;23051;-6.372;106.786;2024-02-26T06:24:40;31.40;83.50
31003;DHT22;23051;-6.372;106.786;2024-02-26T06:26:41;31.40;83.40
31003;DHT22;23051;-6.372;106.786;2024-02-26T06:28:42;31.40;83.40
31003;DHT22;23051;-6.372;106.786;2024-02-26T06:30:43;31.40;83.40
31003;DHT22;23051;-6.372;106.786;2024-02-26T06:32:45;31.40;83.50
31003;DHT22;23051;-6.372;106.786;2024-02-26T06:34:46;31.40;83.60
31003;DHT22;23051;-6.372;106.786;2024-02-26T06:36:47;31.40;83.50
31003;DHT22;23051;-6.372;106.786;2024-02-26T06:38:48;31.40;83.50
31003;DHT22;23051;-6.372;106.786;2024-02-26T06:40:50;31.40;83.60
31003;DHT22;23051;-6.372;106.786;2024-02-26T06:42:51;31.30;83.70
31003;DHT22;23051;-6.372;106.786;2024-02-26T06:44:52;31.30;83.80
31003;DHT22;23051;-6.372;106.786;2024-02-26T06:46:53;31.30;83.80
31003;DHT22;23051;-6.372;106.786;2024-02-26T06:48:54;31.30;83.90
31003;DHT22;23051;-6.372;106.786;2024-02-26T06:50:55;31.20;83.80
31003;DHT22;23051;-6.372;106.786;2024-02-26T06:52:57;31.30;83.90
31003;DHT22;23051;-6.372;106.786;2024-02-26T06:57:36;31.30;83.90
31003;DHT22;23051;-6.372;106.786;2024-02-26T06:59:37;31.30;83.90
31003;DHT22;23051;-6.372;106.786;2024-02-26T07:01:42;31.30;83.90
31003;DHT22;23051;-6.372;106.786;2024-02-26T07:03:43;31.30;83.90
31003;DHT22;23051;-6.372;106.786;2024-02-26T07:05:44;31.30;84.00
31003;DHT22;23051;-6.372;106.786;2024-02-26T07:07:46;31.20;84.00
31003;DHT22;23051;-6.372;106.786;2024-02-26T07:09:47;31.30;83.90
31003;DHT22;23051;-6.372;106.786;2024-02-26T07:11:48;31.30;83.90
31003;DHT22;23051;-6.372;106.786;2024-02-26T07:13:56;31.30;83.80
31003;DHT22;23051;-6.372;106.786;2024-02-26T07:16:01;31.30;83.90
31003;DHT22;23051;-6.372;106.786;2024-02-26T07:18:02;31.30;83.90
31003;DHT22;23051;-6.372;106.786;2024-02-26T07:20:04;31.40;83.90
31003;DHT22;23051;-6.372;106.786;2024-02-26T07:22:05;31.40;83.80
31003;DHT22;23051;-6.372;106.786;2024-02-26T07:24:06;31.40;83.90
31003;DHT22;23051;-6.372;106.786;2024-02-26T07:26:07;31.30;83.90
31003;DHT22;23051;-6.372;106.786;2024-02-26T07:28:08;31.40;83.90
31003;DHT22;23051;-6.372;106.786;2024-02-26T07:30:10;31.40;83.80
31003;DHT22;23051;-6.372;106.786;2024-02-26T07:32:11;31.40;83.90
31003;DHT22;23051;-6.372;106.786;2024-02-26T07:34:12;31.40;87.90
31003;DHT22;23051;-6.372;106.786;2024-02-26T07:36:14;31.50;83.70
31003;DHT22;23051;-6.372;106.786;2024-02-26T07:38:15;31.50;87.10
31003;DHT22;23051;-6.372;106.786;2024-02-26T07:40:16;31.50;83.50
31003;DHT22;23051;-6.372;106.786;2024-02-26T07:42:17;31.50;83.60
31003;DHT22;23051;-6.372;106.786;2024-02-26T07:44:18;31.60;83.60
31003;DHT22;23051;-6.372;106.786;2024-02-26T07:46:19;31.60;83.40
31003;DHT22;23051;-6.372;106.786;2024-02-26T07:48:21;31.60;83.40
31003;DHT22;23051;-6.372;106.786;2024-02-26T07:50:22;31.60;83.50
31003;DHT22;23051;-6.372;106.786;2024-02-26T07:52:23;31.60;83.40
31003;DHT22;23051;-6.372;106.786;2024-02-26T07:54:24;31.70;83.30
31003;DHT22;23051;-6.372;106.786;2024-02-26T07:56:25;31.70;83.30
31003;DHT22;23051;-6.372;106.786;2024-02-26T07:58:27;31.60;83.40
31003;DHT22;23051;-6.372;106.786;2024-02-26T08:00:28;31.60;83.40
31003;DHT22;23051;-6.372;106.786;2024-02-26T08:02:29;31.60;83.30
31003;DHT22;23051;-6.372;106.786;2024-02-26T08:04:30;31.60;83.50
31003;DHT22;23051;-6.372;106.786;2024-02-26T08:06:31;31.60;84.10
31003;DHT22;23051;-6.372;106.786;2024-02-26T08:08:33;31.50;83.50
31003;DHT22;23051;-6.372;106.786;2024-02-26T08:10:34;31.60;83.50
31003;DHT22;23051;-6.372;106.786;2024-02-26T08:12:36;31.60;83.50
31003;DHT22;23051;-6.372;106.786;2024-02-26T08:14:40;31.60;83.60
31003;DHT22;23051;-6.372;106.786;2024-02-26T08:16:41;31.60;83.60
31003;DHT22;23051;-6.372;106.786;2024-02-26T08:18:48;31.60;83.60
31003;DHT22;23051;-6.372;106.786;2024-02-26T08:20:49;31.60;83.50
31003;DHT22;23051;-6.372;106.786;2024-02-26T08:22:50;31.60;83.50
31003;DHT22;23051;-6.372;106.786;2024-02-26T08:24:51;31.60;83.50
31003;DHT22;23051;-6.372;106.786;2024-02-26T08:26:53;31.60;83.50
31003;DHT22;23051;-6.372;106.786;2024-02-26T08:28:54;31.50;83.50
31003;DHT22;23051;-6.372;106.786;2024-02-26T08:30:56;31.50;83.60
31003;DHT22;23051;-6.372;106.786;2024-02-26T08:32:57;31.50;83.60
31003;DHT22;23051;-6.372;106.786;2024-02-26T08:35:00;31.50;83.60
31003;DHT22;23051;-6.372;106.786;2024-02-26T08:37:01;31.50;83.60
31003;DHT22;23051;-6.372;106.786;2024-02-26T08:39:02;31.50;83.50
31003;DHT22;23051;-6.372;106.786;2024-02-26T08:41:04;31.60;83.60
31003;DHT22;23051;-6.372;106.786;2024-02-26T08:43:05;31.60;83.50
31003;DHT22;23051;-6.372;106.786;2024-02-26T08:45:07;31.60;83.60
31003;DHT22;23051;-6.372;106.786;2024-02-26T08:47:08;31.60;83.50
31003;DHT22;23051;-6.372;106.786;2024-02-26T08:49:10;31.60;83.40
31003;DHT22;23051;-6.372;106.786;2024-02-26T08:51:11;31.70;83.30
31003;DHT22;23051;-6.372;106.786;2024-02-26T08:53:13;31.80;83.20
31003;DHT22;23051;-6.372;106.786;2024-02-26T08:55:14;31.90;82.90
31003;DHT22;23051;-6.372;106.786;2024-02-26T08:57:24;32.00;82.50
31003;DHT22;23051;-6.372;106.786;2024-02-26T08:59:27;32.00;82.20
31003;DHT22;23051;-6.372;106.786;2024-02-26T09:01:31;32.10;82.20
31003;DHT22;23051;-6.372;106.786;2024-02-26T09:03:33;32.30;82.10
31003;DHT22;23051;-6.372;106.786;2024-02-26T09:05:34;32.60;81.30
31003;DHT22;23051;-6.372;106.786;2024-02-26T09:07:35;32.70;80.80
31003;DHT22;23051;-6.372;106.786;2024-02-26T09:09:37;32.70;80.60
31003;DHT22;23051;-6.372;106.786;2024-02-26T09:11:38;32.80;80.40
31003;DHT22;23051;-6.372;106.786;2024-02-26T09:13:39;32.80;80.50
31003;DHT22;23051;-6.372;106.786;2024-02-26T09:15:40;32.70;80.60
31003;DHT22;23051;-6.372;106.786;2024-02-26T09:17:42;32.60;81.00
31003;DHT22;23051;-6.372;106.786;2024-02-26T09:19:43;32.40;81.20
31003;DHT22;23051;-6.372;106.786;2024-02-26T09:21:44;32.30;81.60
31003;DHT22;23051;-6.372;106.786;2024-02-26T09:23:46;32.20;82.00
31003;DHT22;23051;-6.372;106.786;2024-02-26T09:25:47;32.00;82.30
31003;DHT22;23051;-6.372;106.786;2024-02-26T09:27:48;32.00;82.60
31003;DHT22;23051;-6.372;106.786;2024-02-26T09:29:49;31.90;82.80
31003;DHT22;23051;-6.372;106.786;2024-02-26T09:31:50;31.90;82.90
31003;DHT22;23051;-6.372;106.786;2024-02-26T09:33:51;31.90;83.10
31003;DHT22;23051;-6.372;106.786;2024-02-26T11:37:15;31.90;82.30
31003;DHT22;23051;-6.372;106.786;2024-02-26T11:39:17;32.00;82.10
31003;DHT22;23051;-6.372;106.786;2024-02-26T11:41:20;32.00;82.00
31003;DHT22;23051;-6.372;106.786;2024-02-26T11:47:58;32.20;81.80
31003;DHT22;23051;-6.372;106.786;2024-02-26T11:50:24;32.20;81.70
31003;DHT22;23051;-6.372;106.786;2024-02-26T11:52:22;32.20;81.60
31003;DHT22;23051;-6.372;106.786;2024-02-26T11:56:43;32.20;81.70
31003;DHT22;23051;-6.372;106.786;2024-02-26T11:58:46;32.20;81.80
31003;DHT22;23051;-6.372;106.786;2024-02-26T12:00:47;32.20;81.80
31003;DHT22;23051;-6.372;106.786;2024-02-26T12:02:55;32.20;81.70
31003;DHT22;23051;-6.372;106.786;2024-02-26T12:05:01;32.30;81.70
31003;DHT22;23051;-6.372;106.786;2024-02-26T12:07:03;32.20;81.60
31003;DHT22;23051;-6.372;106.786;2024-02-26T12:09:05;32.30;81.60
31003;DHT22;23051;-6.372;106.786;2024-02-26T12:11:14;32.30;81.60
31003;DHT22;23051;-6.372;106.786;2024-02-26T12:13:15;32.30;81.60
31003;DHT22;23051;-6.372;106.786;2024-02-26T12:15:16;32.30;81.60
31003;DHT22;23051;-6.372;106.786;2024-02-26T12:17:21;32.30;81.60
31003;DHT22;23051;-6.372;106.786;2024-02-26T12:19:23;32.30;81.50
31003;DHT22;23051;-6.372;106.786;2024-02-26T12:21:44;32.40;81.60
31003;DHT22;23051;-6.372;106.786;2024-02-26T12:23:48;32.40;81.50
31003;DHT22;23051;-6.372;106.786;2024-02-26T12:25:51;32.40;81.50
31003;DHT22;23051;-6.372;106.786;2024-02-26T12:27:54;32.40;81.50
31003;DHT22;23051;-6.372;106.786;2024-02-26T12:29:55;32.40;81.60
31003;DHT22;23051;-6.372;106.786;2024-02-26T12:31:56;32.30;81.80
31003;DHT22;23051;-6.372;106.786;2024-02-26T12:33:59;32.30;81.60
31003;DHT22;23051;-6.372;106.786;2024-02-26T12:36:00;32.30;81.60
31003;DHT22;23051;-6.372;106.786;2024-02-26T12:38:02;32.40;81.60
31003;DHT22;23051;-6.372;106.786;2024-02-26T12:40:05;32.40;81.50
31003;DHT22;23051;-6.372;106.786;2024-02-26T12:42:09;32.40;81.40
31003;DHT22;23051;-6.372;106.786;2024-02-26T12:44:10;32.40;81.40
31003;DHT22;23051;-6.372;106.786;2024-02-26T12:46:11;32.40;81.40
31003;DHT22;23051;-6.372;106.786;2024-02-26T12:48:14;32.40;81.40
31003;DHT22;23051;-6.372;106.786;2024-02-26T12:50:15;32.40;81.30
31003;DHT22;23051;-6.372;106.786;2024-02-26T12:52:16;32.50;81.30
31003;DHT22;23051;-6.372;106.786;2024-02-26T12:54:18;32.50;82.00
31003;DHT22;23051;-6.372;106.786;2024-02-26T12:56:19;32.60;81.10
31003;DHT22;23051;-6.372;106.786;2024-02-26T12:58:21;32.50;81.00
31003;DHT22;23051;-6.372;106.786;2024-02-26T13:00:26;32.50;81.00
31003;DHT22;23051;-6.372;106.786;2024-02-26T13:02:27;32.50;81.20
31003;DHT22;23051;-6.372;106.786;2024-02-26T13:04:29;32.50;81.20
31003;DHT22;23051;-6.372;106.786;2024-02-26T13:06:31;32.50;81.30
31003;DHT22;23051;-6.372;106.786;2024-02-26T13:08:32;32.50;81.40
31003;DHT22;23051;-6.372;106.786;2024-02-26T13:10:35;32.40;81.30
31003;DHT22;23051;-6.372;106.786;2024-02-26T13:12:41;32.40;81.30
31003;DHT22;23051;-6.372;106.786;2024-02-26T13:14:43;32.50;81.40
31003;DHT22;23051;-6.372;106.786;2024-02-26T13:16:57;32.50;81.30
31003;DHT22;23051;-6.372;106.786;2024-02-26T13:19:10;32.50;81.20
31003;DHT22;23051;-6.372;106.786;2024-02-26T13:21:12;32.50;81.20
31003;DHT22;23051;-6.372;106.786;2024-02-26T13:23:14;32.50;81.20
31003;DHT22;23051;-6.372;106.786;2024-02-26T13:25:20;32.40;81.50
31003;DHT22;23051;-6.372;106.786;2024-02-26T13:27:22;32.10;81.80
31003;DHT22;23051;-6.372;106.786;2024-02-26T13:29:26;31.90;82.40
31003;DHT22;23051;-6.372;106.786;2024-02-26T13:31:31;31.70;82.90
31003;DHT22;23051;-6.372;106.786;2024-02-26T13:33:32;31.60;83.30
31003;DHT22;23051;-6.372;106.786;2024-02-26T13:35:34;31.40;83.60
31003;DHT22;23051;-6.372;106.786;2024-02-26T13:37:35;31.30;83.90
31003;DHT22;23051;-6.372;106.786;2024-02-26T13:39:37;31.20;84.20
31003;DHT22;23051;-6.372;106.786;2024-02-26T13:41:39;31.10;84.40
31003;DHT22;23051;-6.372;106.786;2024-02-26T13:43:42;31.00;84.50
31003;DHT22;23051;-6.372;106.786;2024-02-26T13:45:43;30.90;84.50
31003;DHT22;23051;-6.372;106.786;2024-02-26T13:47:45;30.90;84.60
31003;DHT22;23051;-6.372;106.786;2024-02-26T13:49:46;30.80;84.60
31003;DHT22;23051;-6.372;106.786;2024-02-26T13:51:48;30.80;84.60
31003;DHT22;23051;-6.372;106.786;2024-02-26T13:53:49;30.80;84.50
31003;DHT22;23051;-6.372;106.786;2024-02-26T13:55:51;30.80;84.50
31003;DHT22;23051;-6.372;106.786;2024-02-26T13:57:52;30.80;84.40
31003;DHT22;23051;-6.372;106.786;2024-02-26T13:59:54;30.80;84.40
31003;DHT22;23051;-6.372;106.786;2024-02-26T14:01:56;30.80;84.40
31003;DHT22;23051;-6.372;106.786;2024-02-26T14:03:57;30.80;84.40
31003;DHT22;23051;-6.372;106.786;2024-02-26T14:05:58;30.80;84.50
31003;DHT22;23051;-6.372;106.786;2024-02-26T14:08:00;30.70;84.50
31003;DHT22;23051;-6.372;106.786;2024-02-26T14:10:02;30.60;84.70
31003;DHT22;23051;-6.372;106.786;2024-02-26T14:12:03;30.50;84.90
31003;DHT22;23051;-6.372;106.786;2024-02-26T14:14:08;30.50;85.00
31003;DHT22;23051;-6.372;106.786;2024-02-26T14:18:14;30.40;84.50
31003;DHT22;23051;-6.372;106.786;2024-02-26T14:20:18;30.40;85.30
31003;DHT22;23051;-6.372;106.786;2024-02-26T14:22:21;30.30;85.20
31003;DHT22;23051;-6.372;106.786;2024-02-26T14:24:25;30.30;85.20
31003;DHT22;23051;-6.372;106.786;2024-02-26T14:26:26;30.30;85.30
31003;DHT22;23051;-6.372;106.786;2024-02-26T14:28:28;30.30;86.10
31003;DHT22;23051;-6.372;106.786;2024-02-26T14:30:30;30.30;85.40
31003;DHT22;23051;-6.372;106.786;2024-02-26T14:32:31;30.20;85.40
31003;DHT22;23051;-6.372;106.786;2024-02-26T14:34:37;30.20;86.30
31003;DHT22;23051;-6.372;106.786;2024-02-26T14:36:38;30.20;85.60
31003;DHT22;23051;-6.372;106.786;2024-02-26T14:38:39;30.10;85.60
31003;DHT22;23051;-6.372;106.786;2024-02-26T14:40:41;30.10;85.70
31003;DHT22;23051;-6.372;106.786;2024-02-26T14:42:44;30.10;85.80